createdAt,value
2022-07-28T00:00:46.179Z,99279.50
2022-07-28T00:03:15.037Z,99268.91
2022-07-28T00:05:43.884Z,99272.06
2022-07-28T00:08:13.288Z,99276.88
2022-07-28T00:10:42.182Z,99275.34
2022-07-28T00:13:12.493Z,99272.41
2022-07-28T00:15:41.248Z,99277.72
2022-07-28T00:18:10.009Z,99286.88
2022-07-28T00:20:38.761Z,99288.66
2022-07-28T00:23:07.564Z,99273.91
2022-07-28T00:25:36.318Z,99273.75
2022-07-28T00:28:05.315Z,99272.28
2022-07-28T00:30:35.593Z,99277.09
2022-07-28T00:33:04.775Z,99273.28
2022-07-28T00:35:33.826Z,99274.72
2022-07-28T00:38:02.753Z,99276.22
2022-07-28T00:40:45.388Z,99273.41
2022-07-28T00:43:14.132Z,99277.25
2022-07-28T00:45:44.679Z,99270.34
2022-07-28T00:48:13.451Z,99277.63
2022-07-28T00:50:43.062Z,99278.19
2022-07-28T00:53:12.063Z,99275.72
2022-07-28T00:56:06.433Z,99276.25
2022-07-28T00:58:31.628Z,99273.66
2022-07-28T01:01:01.932Z,99261.81
2022-07-28T01:03:32.772Z,99266.56
2022-07-28T01:06:17.777Z,99263.38
2022-07-28T01:09:04.119Z,99259.84
2022-07-28T01:11:43.145Z,99260.50
2022-07-28T01:14:22.672Z,99262.47
2022-07-28T01:17:02.822Z,99263.13
2022-07-28T01:19:43.587Z,99268.50
2022-07-28T01:22:18.729Z,99261.41
2022-07-28T01:25:06.853Z,99262.59
2022-07-28T01:28:08.013Z,99258.72
2022-07-28T01:30:43.267Z,99268.25
2022-07-28T01:33:19.317Z,99261.47
2022-07-28T01:35:56.036Z,99256.78
2022-07-28T01:38:28.390Z,99256.91
2022-07-28T01:41:01.247Z,99254.56
2022-07-28T01:43:34.456Z,99267.25
2022-07-28T01:46:06.606Z,99256.13
2022-07-28T01:48:40.371Z,99259.56
2022-07-28T01:51:14.326Z,99255.06
2022-07-28T01:53:46.077Z,99261.75
2022-07-28T01:56:16.837Z,99253.25
2022-07-28T01:58:47.146Z,99259.56
2022-07-28T02:01:20.665Z,99252.47
2022-07-28T02:03:52.598Z,99248.84
2022-07-28T02:06:24.402Z,99245.94
2022-07-28T02:08:56.393Z,99251.69
2022-07-28T02:11:44.555Z,99246.44
2022-07-28T02:14:19.042Z,99251.09
2022-07-28T02:16:55.391Z,99256.53
2022-07-28T02:19:25.470Z,99256.13
2022-07-28T02:21:56.978Z,99260.00
2022-07-28T02:24:28.097Z,99256.63
2022-07-28T02:27:01.803Z,99252.44
2022-07-28T02:29:50.717Z,99256.50
2022-07-28T02:32:30.589Z,99263.59
2022-07-28T02:35:06.657Z,99254.16
2022-07-28T02:37:42.471Z,99254.63
2022-07-28T02:40:16.626Z,99257.91
2022-07-28T02:42:50.153Z,99254.09
2022-07-28T02:45:25.549Z,99253.03
2022-07-28T02:48:08.716Z,99264.50
2022-07-28T02:50:41.037Z,99262.16
2022-07-28T02:53:15.014Z,99268.47
2022-07-28T02:55:48.469Z,99263.53
2022-07-28T02:58:25.026Z,99265.28
2022-07-28T03:00:56.493Z,99273.44
2022-07-28T03:03:27.096Z,99269.84
2022-07-28T03:05:56.519Z,99269.38
2022-07-28T03:08:25.682Z,99268.09
2022-07-28T03:11:09.730Z,99272.28
2022-07-28T03:13:40.220Z,99261.56
2022-07-28T03:16:10.008Z,99274.97
2022-07-28T03:18:40.087Z,99271.47
2022-07-28T03:21:10.707Z,99284.78
2022-07-28T03:23:43.581Z,99275.78
2022-07-28T03:26:31.981Z,99281.41
2022-07-28T03:29:02.766Z,99283.50
2022-07-28T03:31:35.223Z,99293.06
2022-07-28T03:34:06.188Z,99294.69
2022-07-28T03:36:42.180Z,99295.97
2022-07-28T03:39:13.745Z,99296.78
2022-07-28T03:41:46.757Z,99303.47
2022-07-28T03:44:27.865Z,99307.88
2022-07-28T03:46:58.534Z,99307.16
2022-07-28T03:49:28.718Z,99304.47
2022-07-28T03:51:57.452Z,99306.47
2022-07-28T03:54:26.178Z,99300.03
2022-07-28T03:56:54.907Z,99301.72
2022-07-28T03:59:23.667Z,99308.00
2022-07-28T04:01:52.426Z,99311.97
2022-07-28T04:04:21.101Z,99310.19
2022-07-28T04:06:51.865Z,99313.13
2022-07-28T04:09:20.689Z,99306.34
2022-07-28T04:11:49.393Z,99307.53
2022-07-28T04:14:18.834Z,99302.84
2022-07-28T04:16:47.891Z,99303.56
2022-07-28T04:19:16.636Z,99306.06
2022-07-28T04:21:45.611Z,99307.97
2022-07-28T04:24:16.032Z,99304.72
2022-07-28T04:26:44.872Z,99300.78
2022-07-28T04:29:13.708Z,99298.78
2022-07-28T04:31:52.432Z,99299.94
2022-07-28T04:34:24.175Z,99313.34
2022-07-28T04:36:53.241Z,99309.28
2022-07-28T04:39:24.954Z,99308.47
2022-07-28T04:41:53.724Z,99306.72
2022-07-28T04:44:22.433Z,99298.09
2022-07-28T04:46:51.317Z,99298.53
2022-07-28T04:49:20.125Z,99307.16
2022-07-28T04:51:51.119Z,99299.84
2022-07-28T04:54:26.041Z,99299.84
2022-07-28T04:56:56.848Z,99299.25
2022-07-28T04:59:25.914Z,99303.66
2022-07-28T05:01:57.463Z,99304.38
2022-07-28T05:04:26.630Z,99302.63
2022-07-28T05:06:55.362Z,99306.16
2022-07-28T05:09:28.384Z,99305.22
2022-07-28T05:11:58.693Z,99296.31
2022-07-28T05:14:27.565Z,99289.06
2022-07-28T05:16:56.370Z,99298.28
2022-07-28T05:19:25.533Z,99297.91
2022-07-28T05:21:54.652Z,99295.94
2022-07-28T05:24:23.453Z,99289.47
2022-07-28T05:26:52.313Z,99282.91
2022-07-28T05:29:22.596Z,99284.22
2022-07-28T05:31:51.352Z,99288.53
2022-07-28T05:34:20.218Z,99284.91
2022-07-28T05:36:50.306Z,99284.38
2022-07-28T05:39:19.018Z,99284.13
2022-07-28T05:41:47.806Z,99287.72
2022-07-28T05:44:17.121Z,99292.13
2022-07-28T05:46:47.842Z,99291.00
2022-07-28T05:49:19.720Z,99299.25
2022-07-28T05:51:48.700Z,99298.69
2022-07-28T05:54:18.230Z,99299.19
2022-07-28T05:56:50.308Z,99298.84
2022-07-28T05:59:19.494Z,99307.66
2022-07-28T06:01:54.317Z,99305.66
2022-07-28T06:04:28.073Z,99305.22
2022-07-28T06:06:57.780Z,99305.94
2022-07-28T06:09:26.522Z,99310.94
2022-07-28T06:11:55.255Z,99297.09
2022-07-28T06:14:23.924Z,99300.03
2022-07-28T06:16:54.078Z,99305.00
2022-07-28T06:19:25.915Z,99295.72
2022-07-28T06:21:54.594Z,99295.56
2022-07-28T06:24:23.551Z,99295.13
2022-07-28T06:26:53.082Z,99291.13
2022-07-28T06:29:24.962Z,99300.63
2022-07-28T06:31:55.618Z,99300.75
2022-07-28T06:34:25.833Z,99298.63
2022-07-28T06:36:56.317Z,99294.63
2022-07-28T06:39:25.743Z,99296.88
2022-07-28T06:41:54.925Z,99295.84
2022-07-28T06:44:37.538Z,99296.44
2022-07-28T06:47:14.442Z,99294.66
2022-07-28T06:49:43.403Z,99295.78
2022-07-28T06:52:13.919Z,99302.88
2022-07-28T06:54:48.690Z,99299.41
2022-07-28T06:57:18.097Z,99304.59
2022-07-28T06:59:47.618Z,99285.44
2022-07-28T07:02:18.730Z,99285.22
2022-07-28T07:04:48.248Z,99291.19
2022-07-28T07:07:17.429Z,99290.66
2022-07-28T07:09:46.561Z,99290.44
2022-07-28T07:12:15.427Z,99286.13
2022-07-28T07:14:44.208Z,99277.22
2022-07-28T07:17:13.147Z,99280.22
2022-07-28T07:19:43.360Z,99276.22
2022-07-28T07:22:14.362Z,99281.66
2022-07-28T07:24:43.087Z,99287.88
2022-07-28T07:27:11.847Z,99288.41
2022-07-28T07:29:41.105Z,99290.88
2022-07-28T07:32:10.945Z,99292.50
2022-07-28T07:34:40.769Z,99286.00
2022-07-28T07:37:14.697Z,99287.59
2022-07-28T07:39:44.031Z,99273.25
2022-07-28T07:42:12.929Z,99277.84
2022-07-28T07:44:42.007Z,99277.28
2022-07-28T07:47:19.261Z,99280.78
2022-07-28T07:49:48.612Z,99279.66
2022-07-28T07:52:19.403Z,99282.09
2022-07-28T07:54:48.732Z,99283.97
2022-07-28T07:57:17.698Z,99289.66
2022-07-28T07:59:46.461Z,99290.19
2022-07-28T08:02:15.651Z,99288.28
2022-07-28T08:04:45.343Z,99280.09
2022-07-28T08:07:18.201Z,99278.13
2022-07-28T08:09:51.456Z,99272.88
2022-07-28T08:12:24.664Z,99273.66
2022-07-28T08:14:54.782Z,99270.31
2022-07-28T08:17:26.263Z,99274.06
2022-07-28T08:19:55.898Z,99275.13
2022-07-28T08:22:26.681Z,99273.94
2022-07-28T08:24:56.206Z,99271.66
2022-07-28T08:27:25.050Z,99268.31
2022-07-28T08:29:54.614Z,99270.44
2022-07-28T08:32:23.457Z,99273.41
2022-07-28T08:35:15.780Z,99273.03
2022-07-28T08:37:45.386Z,99274.06
2022-07-28T08:40:15.972Z,99278.28
2022-07-28T08:42:54.202Z,99265.63
2022-07-28T08:45:23.708Z,99260.03
2022-07-28T08:48:07.648Z,99261.94
2022-07-28T08:50:39.496Z,99260.03
2022-07-28T08:53:12.284Z,99257.47
2022-07-28T08:55:43.112Z,99267.78
2022-07-28T08:58:14.759Z,99261.72
2022-07-28T09:00:43.974Z,99262.03
2022-07-28T09:03:14.353Z,99258.22
2022-07-28T09:05:45.108Z,99260.44
2022-07-28T09:08:18.964Z,99252.63
2022-07-28T09:10:47.779Z,99257.56
2022-07-28T09:13:17.552Z,99263.28
2022-07-28T09:15:47.319Z,99255.38
2022-07-28T09:18:18.121Z,99256.28
2022-07-28T09:20:47.905Z,99259.28
2022-07-28T09:23:41.961Z,99259.16
2022-07-28T09:26:12.639Z,99254.19
2022-07-28T09:28:54.795Z,99254.19
2022-07-28T09:31:26.595Z,99264.06
2022-07-28T09:34:02.117Z,99253.91
2022-07-28T09:36:38.728Z,99250.66
2022-07-28T09:39:09.722Z,99251.19
2022-07-28T09:41:59.735Z,99248.34
2022-07-28T09:44:30.040Z,99246.75
2022-07-28T09:46:59.379Z,99243.94
2022-07-28T09:49:44.643Z,99248.84
2022-07-28T09:52:14.375Z,99251.31
2022-07-28T09:55:02.829Z,99240.31
2022-07-28T09:57:32.814Z,99228.09
2022-07-28T10:00:11.261Z,99237.50
2022-07-28T10:02:40.931Z,99237.91
2022-07-28T10:05:12.691Z,99244.56
2022-07-28T10:07:51.146Z,99226.84
2022-07-28T10:10:23.921Z,99232.03
2022-07-28T10:12:52.604Z,99224.97
2022-07-28T10:15:50.482Z,99221.44
2022-07-28T10:18:20.275Z,99218.22
2022-07-28T10:20:50.831Z,99220.66
2022-07-28T10:23:21.537Z,99223.03
2022-07-28T10:25:54.154Z,99213.69
2022-07-28T10:28:24.325Z,99209.16
2022-07-28T10:31:00.656Z,99216.22
2022-07-28T10:33:33.877Z,99207.53
2022-07-28T10:36:04.149Z,99192.16
2022-07-28T10:38:37.028Z,99194.50
2022-07-28T10:41:10.362Z,99195.91
2022-07-28T10:43:42.839Z,99201.31
2022-07-28T10:46:16.989Z,99199.34
2022-07-28T10:48:46.461Z,99191.41
2022-07-28T10:51:16.420Z,99194.88
2022-07-28T10:53:55.624Z,99179.41
2022-07-28T10:56:52.913Z,99184.97
2022-07-28T11:00:24.483Z,99189.63
2022-07-28T11:02:59.111Z,99182.81
2022-07-28T11:05:39.209Z,99181.56
2022-07-28T11:08:10.975Z,99184.66
2022-07-28T11:10:49.933Z,99179.22
2022-07-28T11:13:36.004Z,99172.19
2022-07-28T11:16:22.231Z,99175.63
2022-07-28T11:19:40.690Z,99158.94
2022-07-28T11:22:25.074Z,99159.63
2022-07-28T11:25:18.713Z,99166.03
2022-07-28T11:28:05.901Z,99160.72
2022-07-28T11:30:58.525Z,99165.34
2022-07-28T11:33:56.742Z,99160.66
2022-07-28T11:36:25.453Z,99156.78
2022-07-28T11:39:24.961Z,99154.66
2022-07-28T11:41:53.843Z,99144.03
2022-07-28T11:44:28.263Z,99147.44
2022-07-28T11:47:25.467Z,99153.13
2022-07-28T11:50:17.143Z,99150.91
2022-07-28T11:52:56.481Z,99138.72
2022-07-28T11:55:49.402Z,99138.06
2022-07-28T11:58:25.888Z,99143.53
2022-07-28T12:01:17.143Z,99129.75
2022-07-28T12:03:55.084Z,99128.28
2022-07-28T12:06:35.633Z,99131.69
2022-07-28T12:09:06.953Z,99117.44
2022-07-28T12:11:38.861Z,99129.81
2022-07-28T12:14:10.221Z,99129.44
2022-07-28T12:16:41.067Z,99124.41
2022-07-28T12:19:15.793Z,99114.25
2022-07-28T12:21:49.260Z,99114.44
2022-07-28T12:24:28.828Z,99116.66
2022-07-28T12:26:59.833Z,99100.97
2022-07-28T12:29:35.689Z,99113.22
2022-07-28T12:32:10.209Z,99106.28
2022-07-28T12:34:43.594Z,99109.06
2022-07-28T12:37:15.087Z,99107.66
2022-07-28T12:39:46.236Z,99104.94
2022-07-28T12:42:15.296Z,99094.19
2022-07-28T12:44:47.618Z,99090.38
2022-07-28T12:47:25.552Z,99097.41
2022-07-28T12:53:05.484Z,99091.78
2022-07-28T12:55:34.742Z,99090.31
2022-07-28T12:58:04.086Z,99093.22
2022-07-28T13:00:35.524Z,99082.91
2022-07-28T13:03:25.483Z,99091.53
2022-07-28T13:06:03.983Z,99081.59
2022-07-28T13:08:44.646Z,99078.13
2022-07-28T13:11:42.845Z,99083.63
2022-07-28T13:14:05.757Z,99081.59
2022-07-28T13:16:35.143Z,99080.16
2022-07-28T13:19:05.908Z,99063.69
2022-07-28T13:21:58.347Z,99072.88
2022-07-28T13:24:31.198Z,99070.47
2022-07-28T13:27:00.756Z,99074.03
2022-07-28T13:29:29.626Z,99055.34
2022-07-28T13:31:58.581Z,99051.09
2022-07-28T13:34:27.619Z,99053.88
2022-07-28T13:36:57.125Z,99056.66
2022-07-28T13:39:26.425Z,99047.75
2022-07-28T13:41:59.279Z,99045.16
2022-07-28T13:44:29.125Z,99042.31
2022-07-28T13:47:05.856Z,99039.03
2022-07-28T13:49:37.516Z,99040.41
2022-07-28T13:52:13.178Z,99030.22
2022-07-28T13:54:42.596Z,99034.66
2022-07-28T13:57:13.475Z,99039.13
2022-07-28T13:59:44.597Z,99032.69
2022-07-28T14:02:15.524Z,99039.91
2022-07-28T14:04:46.131Z,99037.53
2022-07-28T14:07:20.854Z,99035.81
2022-07-28T14:09:52.240Z,99031.09
2022-07-28T14:12:22.634Z,99034.97
2022-07-28T14:14:54.888Z,99031.09
2022-07-28T14:20:15.399Z,99030.81
2022-07-28T14:22:46.868Z,99023.28
2022-07-28T14:25:20.600Z,99016.94
2022-07-28T14:27:51.737Z,99019.69
2022-07-28T14:30:21.341Z,99017.69
2022-07-28T14:32:50.685Z,99008.81
2022-07-28T14:35:20.129Z,99011.41
2022-07-28T14:38:49.750Z,99018.09
2022-07-28T14:40:39.940Z,99010.31
2022-07-28T14:43:10.975Z,99004.19
2022-07-28T14:45:51.463Z,99006.22
2022-07-28T14:48:29.553Z,99004.22
2022-07-28T14:50:58.825Z,99011.03
2022-07-28T14:53:28.142Z,99001.66
2022-07-28T14:55:57.523Z,99000.53
2022-07-28T14:58:27.732Z,99002.94
2022-07-28T15:00:56.615Z,98994.09
2022-07-28T15:03:35.810Z,98992.97
2022-07-28T15:06:05.424Z,98995.72
2022-07-28T15:08:34.357Z,98992.94
2022-07-28T15:11:03.308Z,98992.25
2022-07-28T15:13:33.609Z,98992.22
2022-07-28T15:16:03.559Z,98994.44
2022-07-28T15:18:33.036Z,98988.88
2022-07-28T15:21:02.890Z,98989.91
2022-07-28T15:23:31.773Z,98988.63
2022-07-28T15:26:01.204Z,98993.97
2022-07-28T15:28:29.986Z,98996.84
2022-07-28T15:31:01.102Z,98986.63
2022-07-28T15:33:30.057Z,98985.25
2022-07-28T15:36:01.637Z,98982.34
2022-07-28T15:38:31.858Z,98981.84
2022-07-28T15:41:00.995Z,98978.19
2022-07-28T15:43:30.531Z,98980.16
2022-07-28T15:46:06.218Z,98981.97
2022-07-28T15:48:35.022Z,98973.25
2022-07-28T15:51:04.051Z,98975.84
2022-07-28T15:53:33.059Z,98982.31
2022-07-28T15:56:01.990Z,98973.91
2022-07-28T15:58:31.988Z,98976.94
2022-07-28T16:01:02.321Z,98974.91
2022-07-28T16:03:31.902Z,98974.97
2022-07-28T16:06:00.605Z,98973.03
2022-07-28T16:08:29.465Z,98981.84
2022-07-28T16:10:58.366Z,98979.56
2022-07-28T16:13:33.396Z,98974.28
2022-07-28T16:16:09.949Z,98975.09
2022-07-28T16:18:41.349Z,98988.06
2022-07-28T16:21:12.513Z,98975.09
2022-07-28T16:23:41.388Z,98972.88
2022-07-28T16:26:10.731Z,98973.41
2022-07-28T16:28:40.670Z,98960.44
2022-07-28T16:31:10.996Z,98959.72
2022-07-28T16:33:40.044Z,98961.13
2022-07-28T16:36:09.242Z,98963.09
2022-07-28T16:38:37.926Z,98961.13
2022-07-28T16:41:06.649Z,98965.06
2022-07-28T16:43:35.972Z,98970.91
2022-07-28T16:46:04.977Z,98965.72
2022-07-28T16:48:35.383Z,98970.88
2022-07-28T16:51:04.988Z,98976.44
2022-07-28T16:53:34.879Z,98975.31
2022-07-28T16:56:04.663Z,98968.22
2022-07-28T16:58:33.834Z,98972.44
2022-07-28T17:01:03.691Z,98973.13
2022-07-28T17:03:36.684Z,98972.91
2022-07-28T17:06:07.449Z,98970.25
2022-07-28T17:08:36.935Z,98974.28
2022-07-28T17:11:05.846Z,98971.53
2022-07-28T17:13:35.341Z,98977.13
2022-07-28T17:16:05.779Z,98980.25
2022-07-28T17:18:36.182Z,98982.16
2022-07-28T17:21:05.520Z,98980.34
2022-07-28T17:23:36.419Z,98981.59
2022-07-28T17:28:55.581Z,98986.63
2022-07-28T17:31:24.502Z,98985.69
2022-07-28T17:33:54.850Z,98993.38
2022-07-28T17:36:24.629Z,98987.63
2022-07-28T17:38:57.538Z,98987.19
2022-07-28T17:41:30.133Z,98988.56
2022-07-28T17:44:01.698Z,98986.81
2022-07-28T17:46:34.495Z,98988.63
2022-07-28T17:49:08.249Z,98992.06
2022-07-28T17:51:38.403Z,98990.34
2022-07-28T17:54:25.084Z,98985.44
2022-07-28T17:56:54.976Z,98996.56
2022-07-28T17:59:24.130Z,98990.94
2022-07-28T18:02:03.440Z,98988.44
2022-07-28T18:04:34.552Z,98991.25
2022-07-28T18:07:08.625Z,98992.34
2022-07-28T18:09:42.139Z,98991.28
2022-07-28T18:12:11.953Z,98994.25
2022-07-28T18:14:41.565Z,98995.44
2022-07-28T18:17:10.625Z,98995.19
2022-07-28T18:19:45.388Z,98992.78
2022-07-28T18:22:17.479Z,98995.69
2022-07-28T18:24:46.704Z,98993.34
2022-07-28T18:27:15.450Z,98992.59
2022-07-28T18:29:44.646Z,98991.50
2022-07-28T18:32:14.872Z,98993.34
2022-07-28T18:34:45.498Z,98996.97
2022-07-28T18:37:14.442Z,98996.69
2022-07-28T18:39:43.438Z,98999.81
2022-07-28T18:42:12.494Z,98996.28
2022-07-28T18:44:41.464Z,98999.72
2022-07-28T18:47:11.955Z,99003.13
2022-07-28T18:49:41.063Z,99002.34
2022-07-28T18:52:11.433Z,99007.84
2022-07-28T18:54:40.219Z,99006.09
2022-07-28T18:57:08.939Z,99007.41
2022-07-28T18:59:43.234Z,99005.94
2022-07-28T19:02:15.084Z,99014.31
2022-07-28T19:04:44.035Z,99013.38
2022-07-28T19:07:16.189Z,99018.84
2022-07-28T19:09:45.220Z,99022.31
2022-07-28T19:12:15.178Z,99025.06
2022-07-28T19:14:56.219Z,99026.16
2022-07-28T19:17:26.307Z,99033.16
2022-07-28T19:19:56.723Z,99039.88
2022-07-28T19:22:28.913Z,99039.66
2022-07-28T19:24:58.226Z,99048.56
2022-07-28T19:27:27.397Z,99049.88
2022-07-28T19:29:59.730Z,99057.06
2022-07-28T19:32:31.288Z,99059.69
2022-07-28T19:35:00.924Z,99055.44
2022-07-28T19:37:31.214Z,99054.88
2022-07-28T19:40:00.215Z,99061.69
2022-07-28T19:42:31.499Z,99057.59
2022-07-28T19:45:00.212Z,99063.44
2022-07-28T19:47:29.011Z,99066.72
2022-07-28T19:49:58.181Z,99072.44
2022-07-28T19:52:26.909Z,99073.81
2022-07-28T19:54:57.271Z,99077.47
2022-07-28T19:57:26.636Z,99079.63
2022-07-28T19:59:55.437Z,99073.69
2022-07-28T20:02:24.160Z,99075.28
2022-07-28T20:04:52.965Z,99085.19
2022-07-28T20:07:23.225Z,99092.66
2022-07-28T20:09:52.077Z,99081.84
2022-07-28T20:12:22.370Z,99085.78
2022-07-28T20:14:51.542Z,99089.78
2022-07-28T20:17:37.356Z,99084.31
2022-07-28T20:20:08.850Z,99087.88
2022-07-28T20:22:38.226Z,99082.69
2022-07-28T20:25:09.482Z,99095.56
2022-07-28T20:27:41.525Z,99094.94
2022-07-28T20:30:12.335Z,99104.91
2022-07-28T20:32:42.263Z,99101.78
2022-07-28T20:35:18.895Z,99099.78
2022-07-28T20:37:47.679Z,99109.00
2022-07-28T20:40:16.577Z,99110.75
2022-07-28T20:42:51.072Z,99097.75
2022-07-28T20:45:21.916Z,99101.00
2022-07-28T20:47:50.759Z,99109.31
2022-07-28T20:50:20.628Z,99108.69
2022-07-28T20:52:49.426Z,99104.38
2022-07-28T20:55:18.238Z,99106.22
2022-07-28T20:57:53.645Z,99105.97
2022-07-28T21:00:24.108Z,99105.06
2022-07-28T21:02:53.186Z,99103.47
2022-07-28T21:05:34.648Z,99103.09
2022-07-28T21:08:09.476Z,99106.22
2022-07-28T21:10:44.892Z,99113.72
2022-07-28T21:13:15.090Z,99110.66
2022-07-28T21:15:43.948Z,99107.44
2022-07-28T21:18:12.676Z,99107.72
2022-07-28T21:20:41.948Z,99104.53
2022-07-28T21:23:10.807Z,99109.22
2022-07-28T21:25:39.925Z,99104.69
2022-07-28T21:28:33.419Z,99111.25
2022-07-28T21:31:02.246Z,99105.56
2022-07-28T21:33:31.127Z,99103.97
2022-07-28T21:35:59.905Z,99110.31
2022-07-28T21:38:28.665Z,99110.53
2022-07-28T21:40:57.369Z,99108.75
2022-07-28T21:43:27.649Z,99112.00
2022-07-28T21:45:56.503Z,99114.78
2022-07-28T21:48:25.272Z,99111.88
2022-07-28T21:50:54.721Z,99114.25
2022-07-28T21:53:24.029Z,99118.38
2022-07-28T21:55:53.881Z,99114.50
2022-07-28T21:58:23.368Z,99121.06
2022-07-28T22:00:53.669Z,99114.97
2022-07-28T22:03:22.803Z,99117.75
2022-07-28T22:05:51.587Z,99115.56
2022-07-28T22:08:22.986Z,99120.47
2022-07-28T22:10:51.941Z,99123.25
2022-07-28T22:13:20.625Z,99130.31
2022-07-28T22:15:49.623Z,99129.63
2022-07-28T22:18:19.928Z,99130.72
2022-07-28T22:20:49.145Z,99140.75
2022-07-28T22:23:28.621Z,99140.03
2022-07-28T22:25:58.309Z,99145.22
2022-07-28T22:28:29.357Z,99143.34
2022-07-28T22:31:07.151Z,99148.88
2022-07-28T22:33:40.798Z,99148.59
2022-07-28T22:36:10.246Z,99147.78
2022-07-28T22:38:39.051Z,99140.78
2022-07-28T22:41:07.915Z,99150.00
2022-07-28T22:43:36.754Z,99156.81
2022-07-28T22:46:05.559Z,99156.81
2022-07-28T22:48:37.724Z,99154.91
2022-07-28T22:51:13.117Z,99142.66
2022-07-28T22:53:42.729Z,99130.50
2022-07-28T22:56:12.566Z,99128.34
2022-07-28T22:58:41.429Z,99139.50
2022-07-28T23:01:10.226Z,99140.53
2022-07-28T23:03:39.445Z,99146.19
2022-07-28T23:06:09.189Z,99151.09
2022-07-28T23:08:39.418Z,99147.09
2022-07-28T23:11:08.121Z,99144.38
2022-07-28T23:13:40.993Z,99154.94
2022-07-28T23:16:10.266Z,99160.31
2022-07-28T23:18:41.210Z,99160.94
2022-07-28T23:21:10.407Z,99159.31
2022-07-28T23:23:40.738Z,99166.09
2022-07-28T23:26:09.510Z,99170.94
2022-07-28T23:28:38.312Z,99170.16
2022-07-28T23:31:07.476Z,99165.53
2022-07-28T23:33:56.219Z,99169.09
2022-07-28T23:36:26.298Z,99161.53
2022-07-28T23:38:59.401Z,99158.81
2022-07-28T23:41:28.912Z,99159.34
2022-07-28T23:43:57.629Z,99155.59
2022-07-28T23:46:26.609Z,99161.81
2022-07-28T23:48:55.437Z,99147.44
2022-07-28T23:51:46.741Z,99145.00
2022-07-28T23:54:15.621Z,99147.44
2022-07-28T23:56:44.779Z,99140.41
2022-07-28T23:59:14.684Z,99145.53
